LiveATC.Net - Listen to live air traffic control over the Internet!


ICAO: KMWH  IATA: MWH   Airport: Grant County International Airport
City: Moses Lake   State/Province: Washington
Country: United States   Continent: North America
KMWH METAR Weather: KMWH 170152Z 15003KT 10SM CLR 13/02 A3007 RMK AO2 SLP190 T01280017
KMWH Flight Activity (FlightAware)
KMWH Airport Info   (AirNav) (iFlightPlanner)
KMWH VFR Sectional Chart   (iFlightPlanner) 
KMWH IFR Low Chart   (iFlightPlanner) 
KMWH Tower
Feed Status: DOWN
Last heard on: 2017-10-14 21:51:03 (2 days 4 hours 21 minutes ago)
KMWH Tower Audio Archives
FacilityFrequency
Grant County Tower (West)128.000


NOTICE

Unauthorized use prohibited. See LiveATC.net Terms of Service


Find LiveATC Audio Streams


Airport/ARTCC Code

Frequency Search
(e.g., 124.400, 128.75)
Site-wide search
 


Browse LiveATC Feeds
LiveATC Coverage Map
Top 50 LiveATC Feeds
Bad Weather Areas

LiveATC FAQ
Offer a LiveATC Feed
Contact LiveATC.net
Press Inquiries

LiveATC on iPhone
LiveATC on Android

Windows Phone
Windows 8/10

LiveATC Mobile
(Mobile browser)

ATC Audio Archives
Interesting Recordings

LiveATC Forums


Home Page
About LiveATC.net
Make a Donation
LiveATC Store

Terms of Use
Privacy Policy

Canadian Air Freqs

AIRMETs/SIGMETs

FAA Airport Status
Nat'l Airspace Status
Arrival Demand Charts


Server Software By:
Icecast.org
Liquidsoap